createdAt,value
2022-09-28T00:00:19.702Z,17.08
2022-09-28T00:05:22.329Z,17.20
2022-09-28T00:10:24.685Z,18.57
2022-09-28T00:15:28.400Z,16.88
2022-09-28T00:20:30.733Z,17.05
2022-09-28T00:25:33.685Z,19.20
2022-09-28T00:30:37.366Z,17.88
2022-09-28T00:35:39.690Z,16.95
2022-09-28T00:40:42.077Z,18.50
2022-09-28T00:45:45.898Z,17.15
2022-09-28T00:50:48.499Z,17.13
2022-09-28T00:55:52.769Z,16.23
2022-09-28T01:00:58.270Z,16.45
2022-09-28T01:06:02.254Z,16.17
2022-09-28T01:11:04.645Z,15.77
2022-09-28T01:16:12.882Z,17.27
2022-09-28T01:21:16.622Z,16.15
2022-09-28T01:26:33.861Z,15.60
2022-09-28T01:31:38.416Z,15.57
2022-09-28T01:36:43.630Z,17.00
2022-09-28T01:41:48.866Z,16.83
2022-09-28T01:46:53.355Z,17.42
2022-09-28T01:51:56.584Z,16.80
2022-09-28T01:57:01.400Z,17.98
2022-09-28T02:02:07.275Z,18.90
2022-09-28T02:07:11.850Z,18.80
2022-09-28T02:12:15.649Z,17.30
2022-09-28T02:17:19.704Z,20.23
2022-09-28T02:22:25.693Z,19.40
2022-09-28T02:27:31.138Z,19.42
2022-09-28T02:32:40.105Z,18.88
2022-09-28T02:37:42.437Z,20.05
2022-09-28T02:42:48.723Z,19.65
2022-09-28T02:47:57.354Z,20.63
2022-09-28T02:53:09.589Z,20.77
2022-09-28T02:58:20.376Z,22.30
2022-09-28T03:03:30.085Z,19.80
2022-09-28T03:08:34.786Z,18.90
2022-09-28T03:13:37.526Z,19.55
2022-09-28T03:18:41.249Z,19.03
2022-09-28T03:23:43.618Z,18.80
2022-09-28T03:28:46.061Z,19.50
2022-09-28T03:33:49.729Z,20.15
2022-09-28T03:38:52.630Z,20.33
2022-09-28T03:43:55.120Z,20.25
2022-09-28T03:48:59.109Z,18.75
2022-09-28T03:54:01.560Z,18.70
2022-09-28T03:59:04.362Z,18.45
2022-09-28T04:04:08.039Z,18.87
2022-09-28T04:09:10.802Z,20.55
2022-09-28T04:14:13.166Z,19.37
2022-09-28T04:19:17.145Z,19.70
2022-09-28T04:24:20.219Z,20.63
2022-09-28T04:29:22.666Z,20.02
2022-09-28T04:34:29.011Z,20.48
2022-09-28T04:39:34.306Z,20.10
2022-09-28T04:44:36.634Z,19.75
2022-09-28T04:49:40.382Z,22.83
2022-09-28T04:54:42.726Z,22.58
2022-09-28T04:59:45.698Z,21.92
2022-09-28T05:04:49.337Z,21.52
2022-09-28T05:14:53.883Z,21.92
2022-09-28T05:19:57.545Z,24.73
2022-09-28T05:25:00.327Z,22.48
2022-09-28T05:30:02.666Z,21.60
2022-09-28T05:35:07.054Z,22.20
2022-09-28T05:40:09.838Z,22.40
2022-09-28T05:45:12.150Z,22.17
2022-09-28T05:50:16.257Z,22.35
2022-09-28T05:55:18.592Z,21.48
2022-09-28T06:00:21.014Z,20.63
2022-09-28T06:05:24.704Z,20.02
2022-09-28T06:10:27.647Z,19.20
2022-09-28T06:15:30.803Z,19.70
2022-09-28T06:20:36.516Z,18.50
2022-09-28T06:25:38.913Z,18.30
2022-09-28T06:30:42.019Z,16.92
2022-09-28T06:35:45.762Z,16.98
2022-09-28T06:40:48.160Z,17.40
2022-09-28T06:45:52.269Z,18.13
2022-09-28T06:50:55.972Z,16.70
2022-09-28T06:55:58.310Z,17.80
2022-09-28T07:01:00.748Z,16.98
2022-09-28T07:06:04.788Z,16.85
2022-09-28T07:11:07.665Z,16.38
2022-09-28T07:16:10.032Z,15.60
2022-09-28T07:21:26.790Z,15.48
2022-09-28T07:26:33.268Z,16.60
2022-09-28T07:31:35.602Z,15.43
2022-09-28T07:36:39.368Z,14.23
2022-09-28T07:41:42.942Z,13.90
2022-09-28T07:46:45.278Z,12.50
2022-09-28T07:51:48.955Z,13.25
2022-09-28T07:56:51.272Z,12.82
2022-09-28T08:01:53.738Z,12.40
2022-09-28T08:06:57.571Z,11.37
2022-09-28T08:11:59.894Z,12.13
2022-09-28T08:17:02.581Z,13.57
2022-09-28T08:22:06.926Z,12.47
2022-09-28T08:27:10.399Z,10.70
2022-09-28T08:32:12.704Z,11.45
2022-09-28T08:37:16.369Z,9.38
2022-09-28T08:42:27.357Z,9.30
2022-09-28T08:47:49.662Z,9.73
2022-09-28T08:52:57.839Z,9.13
2022-09-28T08:58:02.087Z,9.10
2022-09-28T09:03:06.422Z,8.35
2022-09-28T09:08:15.359Z,8.85
2022-09-28T09:13:25.411Z,8.23
2022-09-28T09:18:32.314Z,9.13
2022-09-28T09:23:39.079Z,7.10
2022-09-28T09:28:58.406Z,7.22
2022-09-28T09:34:07.223Z,5.65
2022-09-28T09:39:19.498Z,4.50
2022-09-28T09:44:28.958Z,4.40
2022-09-28T09:49:35.419Z,4.25
2022-09-28T09:54:41.367Z,4.30
2022-09-28T09:59:44.492Z,3.63
2022-09-28T10:09:51.796Z,3.72
2022-09-28T10:14:55.266Z,2.67
2022-09-28T10:19:57.718Z,2.35
2022-09-28T10:25:01.415Z,1.98
2022-09-28T10:30:13.827Z,2.00
2022-09-28T10:35:23.881Z,1.15
2022-09-28T10:40:30.353Z,1.20
2022-09-28T10:45:35.332Z,0.80
2022-09-28T10:50:39.130Z,1.20
2022-09-28T10:55:42.811Z,0.90
2022-09-28T11:00:45.540Z,1.20
2022-09-28T11:05:54.493Z,1.45
2022-09-28T11:11:08.718Z,1.10
2022-09-28T11:16:19.875Z,0.95
2022-09-28T11:21:26.576Z,1.30
2022-09-28T11:26:35.231Z,0.90
2022-09-28T11:31:39.702Z,0.90
2022-09-28T11:36:52.078Z,0.85
2022-09-28T11:41:58.832Z,0.75
2022-09-28T11:47:05.724Z,0.90
2022-09-28T11:52:10.873Z,0.70
2022-09-28T11:57:17.215Z,0.80
2022-09-28T12:02:22.951Z,0.88
2022-09-28T12:07:26.774Z,0.60
2022-09-28T12:12:32.906Z,0.60
2022-09-28T12:17:37.180Z,0.70
2022-09-28T12:22:41.905Z,0.88
2022-09-28T12:27:50.529Z,0.40
2022-09-28T12:32:56.432Z,0.60
2022-09-28T12:38:08.854Z,0.40
2022-09-28T12:43:28.970Z,0.40
2022-09-28T12:48:42.109Z,0.50
2022-09-28T12:53:53.905Z,0.40
2022-09-28T12:59:05.165Z,0.52
2022-09-28T13:04:14.157Z,0.60
2022-09-28T13:09:19.908Z,0.60
2022-09-28T13:14:33.769Z,0.90
2022-09-28T13:19:40.866Z,1.08
2022-09-28T13:24:44.380Z,0.90
2022-09-28T13:29:51.110Z,0.88
2022-09-28T13:34:54.721Z,0.75
2022-09-28T13:39:58.883Z,0.60
2022-09-28T13:45:12.354Z,0.57
2022-09-28T13:55:24.710Z,0.50
2022-09-28T14:00:30.633Z,0.40
2022-09-28T14:05:35.008Z,0.50
2022-09-28T14:10:48.830Z,0.45
2022-09-28T14:15:52.558Z,0.38
2022-09-28T14:21:02.975Z,0.68
2022-09-28T14:26:23.841Z,0.40
2022-09-28T14:31:28.884Z,0.40
2022-09-28T14:36:53.520Z,0.55
2022-09-28T14:41:55.868Z,0.60
2022-09-28T14:47:25.543Z,0.60
2022-09-28T14:52:41.653Z,0.65
2022-09-28T14:57:43.994Z,0.65
2022-09-28T15:02:49.814Z,9.20
2022-09-28T15:07:53.213Z,0.70
2022-09-28T15:12:57.075Z,0.55
2022-09-28T15:18:08.409Z,0.47
2022-09-28T15:23:24.970Z,0.45
2022-09-28T15:28:27.313Z,0.40
2022-09-28T15:33:49.410Z,0.70
2022-09-28T15:38:54.802Z,0.50
2022-09-28T15:44:20.125Z,1.08
2022-09-28T15:49:25.658Z,1.10
2022-09-28T15:54:32.069Z,2.40
2022-09-28T15:59:35.562Z,0.88
2022-09-28T16:04:40.759Z,1.88
2022-09-28T16:09:54.538Z,1.10
2022-09-28T16:20:00.988Z,0.90
2022-09-28T16:25:03.392Z,0.60
2022-09-28T16:30:15.298Z,0.80
2022-09-28T16:35:23.634Z,3.78
2022-09-28T16:40:26.579Z,1.63
2022-09-28T16:45:29.030Z,0.90
2022-09-28T16:50:32.711Z,1.30
2022-09-28T16:55:40.640Z,0.95
2022-09-28T17:00:45.666Z,1.10
2022-09-28T17:05:49.331Z,0.80
2022-09-28T17:11:14.512Z,0.80
2022-09-28T17:16:17.791Z,1.60
2022-09-28T17:21:21.640Z,1.77
2022-09-28T17:26:27.357Z,6.53
2022-09-28T17:31:30.205Z,3.28
2022-09-28T17:36:33.977Z,1.10
2022-09-28T17:41:37.234Z,1.73
2022-09-28T17:46:40.866Z,5.50
2022-09-28T17:51:44.605Z,5.13
2022-09-28T17:56:47.109Z,4.35
2022-09-28T18:01:49.543Z,17.02
2022-09-28T18:06:53.277Z,15.70
2022-09-28T18:12:00.156Z,14.23
2022-09-28T18:17:02.570Z,3.70
2022-09-28T18:22:06.236Z,3.50
2022-09-28T18:27:08.665Z,4.57
2022-09-28T18:32:11.130Z,5.10
2022-09-28T18:37:14.961Z,6.38
2022-09-28T18:42:17.306Z,6.25
2022-09-28T18:47:19.695Z,4.80
2022-09-28T18:52:24.420Z,4.20
2022-09-28T18:57:27.462Z,5.32
2022-09-28T19:02:30.064Z,5.47
2022-09-28T19:07:34.128Z,6.67
2022-09-28T19:12:36.438Z,9.45
2022-09-28T19:17:39.520Z,11.45
2022-09-28T19:22:43.220Z,10.75
2022-09-28T19:32:48.005Z,8.40
2022-09-28T19:37:52.149Z,8.88
2022-09-28T19:42:54.667Z,9.20
2022-09-28T19:47:59.574Z,13.57
2022-09-28T19:53:06.608Z,15.75
2022-09-28T19:58:09.110Z,14.95
2022-09-28T20:03:11.453Z,13.98
2022-09-28T20:08:15.443Z,16.95
2022-09-28T20:13:17.762Z,16.65
2022-09-28T20:18:20.126Z,16.90
2022-09-28T20:23:23.827Z,18.08
2022-09-28T20:28:26.903Z,18.75
2022-09-28T20:33:31.468Z,19.55
2022-09-28T20:38:38.236Z,18.42
2022-09-28T20:43:41.164Z,20.23
2022-09-28T20:48:43.591Z,20.90
2022-09-28T20:53:49.735Z,22.15
2022-09-28T20:58:52.367Z,23.05
2022-09-28T21:03:55.118Z,23.77
2022-09-28T21:08:58.902Z,25.70
2022-09-28T21:14:02.136Z,24.92
2022-09-28T21:19:04.673Z,24.75
2022-09-28T21:24:08.864Z,27.10
2022-09-28T21:29:12.493Z,25.95
2022-09-28T21:39:19.072Z,23.70
2022-09-28T21:44:21.517Z,23.55
2022-09-28T21:49:23.882Z,27.45
2022-09-28T21:54:28.870Z,29.75
2022-09-28T21:59:31.253Z,29.25
2022-09-28T22:04:33.635Z,32.08
2022-09-28T22:09:38.440Z,31.60
2022-09-28T22:14:40.772Z,28.58
2022-09-28T22:19:43.190Z,27.67
2022-09-28T22:24:46.914Z,26.77
2022-09-28T22:29:49.278Z,25.95
2022-09-28T22:34:51.626Z,31.02
2022-09-28T22:39:55.650Z,30.98
2022-09-28T22:44:58.037Z,27.92
2022-09-28T22:50:00.363Z,19.02
2022-09-28T22:55:04.115Z,26.10
2022-09-28T23:00:07.538Z,23.60
2022-09-28T23:05:10.103Z,21.02
2022-09-28T23:10:13.859Z,31.63
2022-09-28T23:15:16.374Z,37.72
2022-09-28T23:20:18.992Z,35.17
2022-09-28T23:25:22.685Z,29.67
2022-09-28T23:35:27.220Z,34.25
2022-09-28T23:40:31.099Z,41.53
2022-09-28T23:45:33.528Z,41.72
2022-09-28T23:50:35.889Z,35.20
2022-09-28T23:55:39.533Z,42.60
